createdAt,value
2018-02-10T00:01:58.276Z,98463.48
2018-02-10T00:04:26.194Z,98461.13
2018-02-10T00:06:53.760Z,98468.33
2018-02-10T00:09:21.332Z,98473.03
2018-02-10T00:11:48.948Z,98475.09
2018-02-10T00:14:16.582Z,98465.80
2018-02-10T00:16:44.157Z,98460.73
2018-02-10T00:19:11.895Z,98461.08
2018-02-10T00:21:39.477Z,98462.87
2018-02-10T00:24:07.080Z,98455.17
2018-02-10T00:26:34.703Z,98445.28
2018-02-10T00:29:02.298Z,98429.50
2018-02-10T00:31:29.882Z,98429.84
2018-02-10T00:33:57.542Z,98434.08
2018-02-10T00:36:25.159Z,98423.48
2018-02-10T00:38:52.749Z,98425.41
2018-02-10T00:41:21.322Z,98418.97
2018-02-10T00:43:48.948Z,98418.22
2018-02-10T00:46:16.581Z,98408.18
2018-02-10T00:48:44.219Z,98419.50
2018-02-10T00:51:11.806Z,98417.59
2018-02-10T00:53:39.391Z,98412.45
2018-02-10T00:56:07.033Z,98403.13
2018-02-10T00:58:34.684Z,98405.08
2018-02-10T01:01:02.244Z,98407.34
2018-02-10T01:03:29.870Z,98403.38
2018-02-10T01:05:57.519Z,98399.93
2018-02-10T01:08:25.092Z,98405.22
2018-02-10T01:10:52.719Z,98400.61
2018-02-10T01:13:20.283Z,98399.27
2018-02-10T01:15:47.857Z,98393.05
2018-02-10T01:18:15.760Z,98394.39
2018-02-10T01:20:43.626Z,98397.06
2018-02-10T01:23:11.291Z,98403.84
2018-02-10T01:25:38.904Z,98398.20
2018-02-10T01:28:06.504Z,98402.22
2018-02-10T01:30:34.165Z,98410.70
2018-02-10T01:33:01.824Z,98417.66
2018-02-10T01:35:29.433Z,98412.14
2018-02-10T01:37:57.012Z,98407.20
2018-02-10T01:40:24.644Z,98403.82
2018-02-10T01:42:52.204Z,98409.17
2018-02-10T01:45:19.891Z,98409.42
2018-02-10T01:47:47.613Z,98411.26
2018-02-10T01:50:21.977Z,98406.53
2018-02-10T01:52:49.606Z,98416.34
2018-02-10T01:55:17.189Z,98401.19
2018-02-10T01:57:44.826Z,98395.18
2018-02-10T02:00:12.677Z,98386.78
2018-02-10T02:02:40.315Z,98388.70
2018-02-10T02:05:07.924Z,98391.88
2018-02-10T02:07:35.532Z,98390.04
2018-02-10T02:10:03.126Z,98394.01
2018-02-10T02:12:30.764Z,98389.16
2018-02-10T02:14:58.481Z,98385.83
2018-02-10T02:17:26.075Z,98372.86
2018-02-10T02:19:53.689Z,98371.75
2018-02-10T02:22:21.427Z,98373.19
2018-02-10T02:24:49.047Z,98378.84
2018-02-10T02:27:16.610Z,98383.64
2018-02-10T02:29:44.228Z,98379.02
2018-02-10T02:32:11.833Z,98381.30
2018-02-10T02:34:39.408Z,98389.37
2018-02-10T02:37:07.568Z,98391.20
2018-02-10T02:39:35.149Z,98388.88
2018-02-10T02:42:02.754Z,98387.96
2018-02-10T02:44:30.373Z,98387.80
2018-02-10T02:46:57.959Z,98392.91
2018-02-10T02:49:25.541Z,98390.72
2018-02-10T02:51:53.165Z,98399.27
2018-02-10T02:54:20.756Z,98404.77
2018-02-10T02:56:48.346Z,98399.91
2018-02-10T02:59:16.021Z,98399.15
2018-02-10T03:01:43.618Z,98396.19
2018-02-10T03:04:12.367Z,98396.47
2018-02-10T03:06:40.299Z,98386.49
2018-02-10T03:09:10.889Z,98392.10
2018-02-10T03:11:38.510Z,98394.64
2018-02-10T03:14:07.392Z,98398.92
2018-02-10T03:16:35.009Z,98396.39
2018-02-10T03:19:02.633Z,98391.95
2018-02-10T03:21:30.311Z,98392.27
2018-02-10T03:23:58.019Z,98380.95
2018-02-10T03:26:25.628Z,98369.78
2018-02-10T03:28:53.449Z,98362.91
2018-02-10T03:31:21.088Z,98358.62
2018-02-10T03:33:49.540Z,98350.06
2018-02-10T03:36:17.168Z,98354.85
2018-02-10T03:38:44.751Z,98352.83
2018-02-10T03:41:14.437Z,98344.77
2018-02-10T03:43:42.402Z,98344.03
2018-02-10T03:46:10.004Z,98343.84
2018-02-10T03:48:37.565Z,98349.22
2018-02-10T03:51:05.213Z,98344.03
2018-02-10T03:53:32.800Z,98346.61
2018-02-10T03:56:00.370Z,98344.95
2018-02-10T03:58:28.075Z,98346.37
2018-02-10T04:00:55.679Z,98344.53
2018-02-10T04:03:23.236Z,98347.03
2018-02-10T04:05:50.873Z,98348.64
2018-02-10T04:08:18.452Z,98340.81
2018-02-10T04:10:46.062Z,98342.84
2018-02-10T04:13:13.760Z,98352.25
2018-02-10T04:15:41.836Z,98358.05
2018-02-10T04:18:09.434Z,98358.62
2018-02-10T04:20:37.282Z,98354.86
2018-02-10T04:23:04.917Z,98352.68
2018-02-10T04:25:33.062Z,98346.38
2018-02-10T04:28:00.718Z,98348.50
2018-02-10T04:30:28.292Z,98351.07
2018-02-10T04:32:55.957Z,98351.68
2018-02-10T04:35:23.604Z,98354.09
2018-02-10T04:37:51.172Z,98360.47
2018-02-10T04:40:18.749Z,98360.23
2018-02-10T04:42:46.375Z,98355.71
2018-02-10T04:45:13.945Z,98351.99
2018-02-10T04:47:41.533Z,98345.12
2018-02-10T04:50:09.261Z,98346.03
2018-02-10T04:52:36.844Z,98340.31
2018-02-10T04:55:04.421Z,98346.02
2018-02-10T04:57:32.073Z,98347.44
2018-02-10T04:59:59.663Z,98348.97
2018-02-10T05:02:27.228Z,98342.57
2018-02-10T05:04:55.202Z,98338.73
2018-02-10T05:07:22.767Z,98347.13
2018-02-10T05:09:50.344Z,98345.86
2018-02-10T05:12:17.997Z,98356.60
2018-02-10T05:14:45.629Z,98360.63
2018-02-10T05:17:13.218Z,98362.59
2018-02-10T05:19:40.852Z,98363.86
2018-02-10T05:22:08.424Z,98365.39
2018-02-10T05:24:36.041Z,98368.34
2018-02-10T05:27:03.797Z,98358.37
2018-02-10T05:29:31.376Z,98362.32
2018-02-10T05:31:58.984Z,98359.91
2018-02-10T05:34:26.591Z,98359.71
2018-02-10T05:36:54.190Z,98362.21
2018-02-10T05:39:21.816Z,98357.30
2018-02-10T05:41:49.561Z,98358.48
2018-02-10T05:44:17.173Z,98361.02
2018-02-10T05:46:44.765Z,98378.97
2018-02-10T05:49:12.681Z,98385.72
2018-02-10T05:51:40.258Z,98393.09
2018-02-10T05:54:07.824Z,98389.02
2018-02-10T05:56:35.472Z,98387.17
2018-02-10T05:59:03.070Z,98390.77
2018-02-10T06:01:30.656Z,98394.09
2018-02-10T06:03:58.294Z,98388.34
2018-02-10T06:06:25.902Z,98390.70
2018-02-10T06:08:53.475Z,98391.20
2018-02-10T06:11:21.116Z,98395.82
2018-02-10T06:13:48.693Z,98393.56
2018-02-10T06:16:16.296Z,98390.64
2018-02-10T06:18:44.160Z,98406.26
2018-02-10T06:21:11.739Z,98405.64
2018-02-10T06:23:39.317Z,98403.89
2018-02-10T06:26:06.994Z,98410.00
2018-02-10T06:28:34.673Z,98398.00
2018-02-10T06:31:02.238Z,98395.89
2018-02-10T06:33:30.110Z,98406.82
2018-02-10T06:35:58.648Z,98405.48
2018-02-10T06:38:26.199Z,98401.52
2018-02-10T06:40:53.889Z,98393.55
2018-02-10T06:43:21.479Z,98386.59
2018-02-10T06:45:49.038Z,98387.83
2018-02-10T06:48:16.783Z,98390.86
2018-02-10T06:50:44.364Z,98384.39
2018-02-10T06:53:11.954Z,98384.05
2018-02-10T06:55:40.204Z,98375.57
2018-02-10T06:58:07.774Z,98377.42
2018-02-10T07:00:35.335Z,98384.14
2018-02-10T07:03:02.999Z,98388.86
2018-02-10T07:05:30.577Z,98396.28
2018-02-10T07:07:58.164Z,98390.52
2018-02-10T07:10:25.820Z,98390.62
2018-02-10T07:12:53.421Z,98388.06
2018-02-10T07:15:21.079Z,98392.02
2018-02-10T07:17:48.780Z,98395.79
2018-02-10T07:20:16.344Z,98396.70
2018-02-10T07:22:43.985Z,98402.09
2018-02-10T07:25:11.625Z,98402.61
2018-02-10T07:27:39.222Z,98408.66
2018-02-10T07:30:06.872Z,98412.08
2018-02-10T07:32:34.505Z,98418.30
2018-02-10T07:35:02.073Z,98420.91
2018-02-10T07:37:29.637Z,98425.16
2018-02-10T07:39:57.531Z,98414.53
2018-02-10T07:42:25.095Z,98406.80
2018-02-10T07:44:53.310Z,98409.62
2018-02-10T07:47:21.027Z,98405.22
2018-02-10T07:49:48.607Z,98402.45
2018-02-10T07:52:16.215Z,98400.09
2018-02-10T07:54:43.943Z,98399.50
2018-02-10T07:57:12.473Z,98391.60
2018-02-10T07:59:40.039Z,98392.13
2018-02-10T08:02:07.684Z,98386.20
2018-02-10T08:04:35.264Z,98387.12
2018-02-10T08:07:02.836Z,98392.41
2018-02-10T08:09:30.481Z,98392.84
2018-02-10T08:11:58.044Z,98389.47
2018-02-10T08:14:25.621Z,98401.56
2018-02-10T08:16:53.240Z,98393.84
2018-02-10T08:19:20.849Z,98397.44
2018-02-10T08:21:48.436Z,98395.67
2018-02-10T08:24:16.133Z,98399.64
2018-02-10T08:26:43.705Z,98387.54
2018-02-10T08:29:11.279Z,98392.50
2018-02-10T08:31:38.920Z,98388.20
2018-02-10T08:34:06.516Z,98377.44
2018-02-10T08:36:34.138Z,98374.42
2018-02-10T08:39:02.030Z,98364.64
2018-02-10T08:41:29.692Z,98360.95
2018-02-10T08:43:57.292Z,98357.30
2018-02-10T08:46:24.941Z,98356.43
2018-02-10T08:48:52.509Z,98357.38
2018-02-10T08:51:20.154Z,98347.45
2018-02-10T08:53:47.980Z,98354.67
2018-02-10T08:56:15.568Z,98349.16
2018-02-10T08:58:43.131Z,98343.09
2018-02-10T09:01:11.705Z,98342.92
2018-02-10T09:03:39.351Z,98335.58
2018-02-10T09:06:06.925Z,98333.89
2018-02-10T09:08:34.561Z,98328.59
2018-02-10T09:11:02.185Z,98318.86
2018-02-10T09:13:29.752Z,98317.90
2018-02-10T09:15:57.408Z,98327.32
2018-02-10T09:18:24.984Z,98323.03
2018-02-10T09:20:52.572Z,98317.89
2018-02-10T09:23:20.716Z,98313.50
2018-02-10T09:25:48.295Z,98308.88
2018-02-10T09:28:15.897Z,98309.36
2018-02-10T09:30:44.076Z,98307.42
2018-02-10T09:33:11.736Z,98305.55
2018-02-10T09:35:39.361Z,98296.23
2018-02-10T09:38:07.173Z,98290.16
2018-02-10T09:40:34.784Z,98297.11
2018-02-10T09:43:02.371Z,98291.39
2018-02-10T09:45:30.566Z,98288.70
2018-02-10T09:47:58.152Z,98287.02
2018-02-10T09:50:25.721Z,98284.10
2018-02-10T09:52:53.329Z,98288.56
2018-02-10T09:55:20.905Z,98288.33
2018-02-10T09:57:48.480Z,98278.83
2018-02-10T10:00:16.126Z,98276.08
2018-02-10T10:02:43.700Z,98276.94
2018-02-10T10:05:11.290Z,98276.03
2018-02-10T10:07:38.970Z,98272.31
2018-02-10T10:10:06.637Z,98268.55
2018-02-10T10:12:34.273Z,98250.66
2018-02-10T10:15:01.902Z,98250.51
2018-02-10T10:17:29.474Z,98242.22
2018-02-10T10:19:57.049Z,98236.73
2018-02-10T10:22:24.973Z,98228.42
2018-02-10T10:24:52.577Z,98224.67
2018-02-10T10:27:20.235Z,98217.23
2018-02-10T10:29:47.897Z,98211.55
2018-02-10T10:32:15.480Z,98200.08
2018-02-10T10:34:43.069Z,98196.56
2018-02-10T10:37:10.686Z,98188.73
2018-02-10T10:39:38.285Z,98188.13
2018-02-10T10:42:05.870Z,98185.34
2018-02-10T10:44:33.500Z,98185.14
2018-02-10T10:47:01.069Z,98183.59
2018-02-10T10:49:28.653Z,98185.44
2018-02-10T10:51:56.273Z,98177.69
2018-02-10T10:54:23.847Z,98174.36
2018-02-10T10:56:51.425Z,98168.80
2018-02-10T10:59:19.086Z,98175.34
2018-02-10T11:01:47.428Z,98177.30
2018-02-10T11:04:15.023Z,98172.13
2018-02-10T11:06:42.653Z,98171.28
2018-02-10T11:09:10.291Z,98163.64
2018-02-10T11:11:37.861Z,98154.00
2018-02-10T11:14:05.480Z,98156.80
2018-02-10T11:16:33.057Z,98149.98
2018-02-10T11:19:00.692Z,98149.34
2018-02-10T11:21:28.333Z,98139.25
2018-02-10T11:23:55.900Z,98126.42
2018-02-10T11:26:23.509Z,98117.74
2018-02-10T11:28:51.234Z,98109.20
2018-02-10T11:31:18.796Z,98107.91
2018-02-10T11:33:46.377Z,98100.88
2018-02-10T11:36:14.006Z,98101.22
2018-02-10T11:38:41.653Z,98100.80
2018-02-10T11:41:09.450Z,98091.62
2018-02-10T11:43:37.284Z,98089.19
2018-02-10T11:46:04.879Z,98087.84
2018-02-10T11:48:32.507Z,98079.23
2018-02-10T11:51:00.150Z,98083.41
2018-02-10T11:53:27.742Z,98086.55
2018-02-10T11:55:55.331Z,98093.20
2018-02-10T11:58:22.969Z,98078.73
2018-02-10T12:00:50.567Z,98072.58
2018-02-10T12:03:18.146Z,98069.50
2018-02-10T12:05:45.762Z,98069.83
2018-02-10T12:08:13.333Z,98078.01
2018-02-10T12:10:40.924Z,98067.67
2018-02-10T12:13:09.245Z,98058.80
2018-02-10T12:15:36.828Z,98059.88
2018-02-10T12:18:04.474Z,98052.19
2018-02-10T12:20:32.300Z,98060.77
2018-02-10T12:22:59.870Z,98063.75
2018-02-10T12:25:28.337Z,98052.02
2018-02-10T12:27:55.976Z,98049.83
2018-02-10T12:30:23.632Z,98041.31
2018-02-10T12:32:51.266Z,98037.47
2018-02-10T12:35:19.008Z,98039.19
2018-02-10T12:37:46.567Z,98027.52
2018-02-10T12:40:14.135Z,98026.92
2018-02-10T12:42:41.770Z,98017.77
2018-02-10T12:45:09.367Z,98026.82
2018-02-10T12:47:54.711Z,98023.47
2018-02-10T12:50:22.337Z,98027.16
2018-02-10T12:52:50.701Z,98027.25
2018-02-10T12:55:18.572Z,98033.60
2018-02-10T12:57:46.238Z,98033.77
2018-02-10T13:00:13.810Z,98036.85
2018-02-10T13:02:41.496Z,98032.59
2018-02-10T13:05:09.129Z,98035.17
2018-02-10T13:07:36.837Z,98027.24
2018-02-10T13:10:04.541Z,98040.16
2018-02-10T13:12:32.201Z,98024.83
2018-02-10T13:14:59.833Z,98028.23
2018-02-10T13:17:27.527Z,98017.44
2018-02-10T13:19:55.156Z,98024.77
2018-02-10T13:22:22.744Z,98025.42
2018-02-10T13:24:50.336Z,98032.62
2018-02-10T13:27:17.944Z,98036.95
2018-02-10T13:29:46.502Z,98034.19
2018-02-10T13:32:14.453Z,98033.02
2018-02-10T13:34:42.052Z,98031.15
2018-02-10T13:37:09.697Z,98027.02
2018-02-10T13:39:37.554Z,98022.81
2018-02-10T13:42:05.161Z,98030.64
2018-02-10T13:44:32.730Z,98039.94
2018-02-10T13:47:00.376Z,98041.80
2018-02-10T13:49:28.532Z,98040.85
2018-02-10T13:51:56.169Z,98049.66
2018-02-10T13:54:23.805Z,98050.48
2018-02-10T13:56:51.609Z,98054.06
2018-02-10T13:59:20.097Z,98060.66
2018-02-10T14:01:47.783Z,98060.06
2018-02-10T14:04:15.353Z,98062.57
2018-02-10T14:06:42.919Z,98059.98
2018-02-10T14:09:10.533Z,98061.67
2018-02-10T14:11:38.396Z,98067.65
2018-02-10T14:14:05.980Z,98057.20
2018-02-10T14:16:33.694Z,98053.61
2018-02-10T14:19:01.354Z,98046.47
2018-02-10T14:21:28.929Z,98037.48
2018-02-10T14:23:56.593Z,98036.55
2018-02-10T14:26:24.160Z,98022.48
2018-02-10T14:28:51.803Z,98020.98
2018-02-10T14:31:19.433Z,98018.33
2018-02-10T14:33:47.016Z,98012.37
2018-02-10T14:36:14.604Z,98020.44
2018-02-10T14:38:42.215Z,98011.44
2018-02-10T14:41:09.907Z,98016.72
2018-02-10T14:43:37.471Z,98016.48
2018-02-10T14:46:05.117Z,98021.36
2018-02-10T14:48:32.763Z,98018.33
2018-02-10T14:51:00.329Z,98017.92
2018-02-10T14:53:27.958Z,98020.09
2018-02-10T14:55:55.526Z,98021.44
2018-02-10T14:58:23.095Z,98020.19
2018-02-10T15:00:50.765Z,98019.19
2018-02-10T15:03:18.352Z,98021.53
2018-02-10T15:05:45.915Z,98013.14
2018-02-10T15:08:13.537Z,98011.87
2018-02-10T15:10:41.133Z,98010.15
2018-02-10T15:13:08.782Z,98009.81
2018-02-10T15:15:36.461Z,98010.23
2018-02-10T15:18:04.364Z,98009.13
2018-02-10T15:20:31.996Z,98000.09
2018-02-10T15:22:59.747Z,98004.88
2018-02-10T15:25:27.362Z,97999.44
2018-02-10T15:27:55.010Z,97999.44
2018-02-10T15:30:34.653Z,97998.59
2018-02-10T15:33:15.006Z,97998.25
2018-02-10T15:35:42.616Z,98008.06
2018-02-10T15:38:10.218Z,97998.26
2018-02-10T15:40:38.427Z,98005.30
2018-02-10T15:43:06.117Z,97998.09
2018-02-10T15:45:33.697Z,98004.46
2018-02-10T15:48:01.300Z,98011.24
2018-02-10T15:50:29.237Z,98012.59
2018-02-10T15:52:56.797Z,98015.27
2018-02-10T15:55:24.391Z,98014.42
2018-02-10T15:57:52.017Z,98002.63
2018-02-10T16:00:19.605Z,98005.46
2018-02-10T16:02:47.868Z,98004.20
2018-02-10T16:05:15.537Z,98006.22
2018-02-10T16:07:43.113Z,97994.39
2018-02-10T16:10:10.697Z,97990.48
2018-02-10T16:12:39.148Z,97992.23
2018-02-10T16:15:06.721Z,97981.41
2018-02-10T16:17:34.299Z,97963.75
2018-02-10T16:20:01.937Z,97963.75
2018-02-10T16:22:29.512Z,97961.41
2018-02-10T16:24:57.086Z,97957.70
2018-02-10T16:27:24.734Z,97953.67
2018-02-10T16:29:52.325Z,97959.30
2018-02-10T16:32:19.892Z,97952.02
2018-02-10T16:34:48.424Z,97953.67
2018-02-10T16:37:16.022Z,97959.87
2018-02-10T16:39:43.691Z,97953.94
2018-02-10T16:42:11.388Z,97951.49
2018-02-10T16:44:39.304Z,97954.08
2018-02-10T16:47:06.881Z,97947.22
2018-02-10T16:49:34.662Z,97956.59
2018-02-10T16:52:02.310Z,97948.30
2018-02-10T16:54:29.877Z,97944.88
2018-02-10T16:56:57.582Z,97926.98
2018-02-10T16:59:25.927Z,97940.86
2018-02-10T17:01:53.496Z,97932.12
2018-02-10T17:04:21.238Z,97932.31
2018-02-10T17:06:48.854Z,97930.30
2018-02-10T17:09:16.493Z,97935.16
2018-02-10T17:11:44.385Z,97937.85
2018-02-10T17:14:11.972Z,97930.56
2018-02-10T17:16:39.601Z,97926.35
2018-02-10T17:19:07.222Z,97925.84
2018-02-10T17:21:34.817Z,97911.97
2018-02-10T17:24:02.455Z,97898.42
2018-02-10T17:26:30.096Z,97905.85
2018-02-10T17:28:57.705Z,97894.64
2018-02-10T17:31:25.263Z,97898.99
2018-02-10T17:33:53.013Z,97887.38
2018-02-10T17:36:20.605Z,97883.17
2018-02-10T17:38:49.647Z,97879.84
2018-02-10T17:41:17.273Z,97887.38
2018-02-10T17:43:44.853Z,97894.64
2018-02-10T17:46:13.911Z,97888.87
2018-02-10T17:48:42.794Z,97877.93
2018-02-10T17:51:12.026Z,97872.88
2018-02-10T17:53:41.149Z,97868.87
2018-02-10T17:56:08.810Z,97874.75
2018-02-10T17:58:38.787Z,97867.22
2018-02-10T18:01:07.643Z,97859.09
2018-02-10T18:03:35.433Z,97857.34
2018-02-10T18:06:03.083Z,97857.50
2018-02-10T18:08:30.661Z,97854.13
2018-02-10T18:10:59.712Z,97855.17
2018-02-10T18:13:27.337Z,97842.51
2018-02-10T18:15:54.908Z,97846.29
2018-02-10T18:18:22.551Z,97837.84
2018-02-10T18:20:50.109Z,97841.17
2018-02-10T18:23:17.750Z,97844.03
2018-02-10T18:25:45.511Z,97839.09
2018-02-10T18:28:13.119Z,97832.91
2018-02-10T18:30:40.744Z,97829.73
2018-02-10T18:33:10.082Z,97830.38
2018-02-10T18:35:37.648Z,97831.14
2018-02-10T18:38:05.241Z,97834.24
2018-02-10T18:40:32.849Z,97836.84
2018-02-10T18:43:00.412Z,97826.28
2018-02-10T18:45:27.972Z,97817.34
2018-02-10T18:47:55.730Z,97815.31
2018-02-10T18:50:23.539Z,97811.91
2018-02-10T18:52:51.254Z,97807.20
2018-02-10T18:55:18.873Z,97813.81
2018-02-10T18:57:46.497Z,97811.83
2018-02-10T19:00:14.133Z,97815.23
2018-02-10T19:02:41.736Z,97814.81
2018-02-10T19:05:09.402Z,97815.23
2018-02-10T19:07:37.046Z,97806.47
2018-02-10T19:10:04.654Z,97811.98
2018-02-10T19:12:32.254Z,97815.08
2018-02-10T19:14:59.850Z,97811.72
2018-02-10T19:17:27.684Z,97818.59
2018-02-10T19:19:56.092Z,97818.25
2018-02-10T19:22:23.664Z,97830.64
2018-02-10T19:24:51.283Z,97836.08
2018-02-10T19:27:18.875Z,97842.43
2018-02-10T19:29:46.507Z,97852.41
2018-02-10T19:32:14.156Z,97844.45
2018-02-10T19:34:42.346Z,97840.86
2018-02-10T19:37:09.924Z,97841.16
2018-02-10T19:39:38.247Z,97843.53
2018-02-10T19:42:05.829Z,97821.84
2018-02-10T19:44:33.408Z,97829.04
2018-02-10T19:47:01.107Z,97819.75
2018-02-10T19:49:28.887Z,97812.90
2018-02-10T19:51:56.477Z,97797.17
2018-02-10T19:54:24.108Z,97806.87
2018-02-10T19:56:51.674Z,97801.94
2018-02-10T19:59:19.264Z,97801.52
2018-02-10T20:01:46.910Z,97792.04
2018-02-10T20:04:14.496Z,97786.45
2018-02-10T20:06:42.234Z,97787.61
2018-02-10T20:09:10.802Z,97782.78
2018-02-10T20:11:38.381Z,97782.36
2018-02-10T20:14:05.975Z,97780.91
2018-02-10T20:16:33.600Z,97791.53
2018-02-10T20:19:01.156Z,97795.53
2018-02-10T20:21:28.734Z,97801.22
2018-02-10T20:23:56.413Z,97804.53
2018-02-10T20:26:23.979Z,97792.34
2018-02-10T20:28:51.535Z,97792.12
2018-02-10T20:31:19.147Z,97796.56
2018-02-10T20:33:46.711Z,97786.77
2018-02-10T20:36:14.304Z,97787.09
2018-02-10T20:38:41.922Z,97791.02
2018-02-10T20:41:09.511Z,97787.41
2018-02-10T20:43:37.082Z,97773.05
2018-02-10T20:46:04.724Z,97787.78
2018-02-10T20:48:32.642Z,97781.78
2018-02-10T20:51:01.032Z,97782.86
2018-02-10T20:53:28.661Z,97796.03
2018-02-10T20:55:56.255Z,97794.84
2018-02-10T20:58:23.843Z,97804.20
2018-02-10T21:00:54.865Z,97801.87
2018-02-10T21:03:22.444Z,97805.97
2018-02-10T21:05:50.012Z,97812.86
2018-02-10T21:08:17.626Z,97812.09
2018-02-10T21:10:45.199Z,97829.53
2018-02-10T21:13:12.763Z,97811.66
2018-02-10T21:15:40.680Z,97810.96
2018-02-10T21:18:08.275Z,97819.55
2018-02-10T21:20:35.853Z,97809.98
2018-02-10T21:23:03.501Z,97809.70
2018-02-10T21:25:31.057Z,97807.73
2018-02-10T21:27:58.694Z,97801.38
2018-02-10T21:30:26.312Z,97792.65
2018-02-10T21:32:53.948Z,97791.34
2018-02-10T21:35:21.510Z,97792.91
2018-02-10T21:37:49.232Z,97778.62
2018-02-10T21:40:16.820Z,97764.51
2018-02-10T21:42:44.388Z,97761.42
2018-02-10T21:45:11.992Z,97749.53
2018-02-10T21:47:39.586Z,97750.34
2018-02-10T21:50:07.216Z,97743.66
2018-02-10T21:52:35.296Z,97745.77
2018-02-10T21:55:02.872Z,97743.16
2018-02-10T21:57:31.231Z,97732.78
2018-02-10T21:59:58.918Z,97726.75
2018-02-10T22:02:26.480Z,97729.91
2018-02-10T22:04:54.035Z,97723.59
2018-02-10T22:07:21.705Z,97718.50
2018-02-10T22:09:49.340Z,97727.55
2018-02-10T22:12:16.931Z,97709.98
2018-02-10T22:14:44.602Z,97703.78
2018-02-10T22:17:12.205Z,97697.88
2018-02-10T22:19:39.802Z,97693.29
2018-02-10T22:22:07.420Z,97698.51
2018-02-10T22:24:35.204Z,97690.61
2018-02-10T22:27:02.804Z,97681.23
2018-02-10T22:29:30.456Z,97672.71
2018-02-10T22:31:58.021Z,97656.18
2018-02-10T22:34:25.615Z,97663.25
2018-02-10T22:36:53.270Z,97655.99
2018-02-10T22:39:20.847Z,97650.30
2018-02-10T22:41:48.414Z,97643.27
2018-02-10T22:44:16.026Z,97632.78
2018-02-10T22:46:43.596Z,97634.91
2018-02-10T22:49:11.231Z,97630.13
2018-02-10T22:51:38.853Z,97629.59
2018-02-10T22:54:07.125Z,97631.59
2018-02-10T22:56:34.681Z,97629.47
2018-02-10T22:59:02.289Z,97625.16
2018-02-10T23:01:29.867Z,97623.16
2018-02-10T23:03:57.496Z,97618.82
2018-02-10T23:06:26.610Z,97626.62
2018-02-10T23:08:54.164Z,97615.09
2018-02-10T23:11:21.740Z,97613.78
2018-02-10T23:13:49.369Z,97609.28
2018-02-10T23:16:16.922Z,97610.36
2018-02-10T23:18:44.479Z,97609.52
2018-02-10T23:21:12.321Z,97601.09
2018-02-10T23:23:39.876Z,97600.59
2018-02-10T23:26:07.470Z,97596.50
2018-02-10T23:28:35.091Z,97592.72
2018-02-10T23:31:02.696Z,97601.77
2018-02-10T23:33:30.373Z,97599.17
2018-02-10T23:35:58.070Z,97589.55
2018-02-10T23:38:25.648Z,97578.78
2018-02-10T23:40:53.212Z,97572.52
2018-02-10T23:43:20.948Z,97570.95
2018-02-10T23:45:48.507Z,97574.70
2018-02-10T23:48:16.063Z,97567.02
2018-02-10T23:50:43.695Z,97556.25
2018-02-10T23:53:11.252Z,97541.02
2018-02-10T23:55:38.887Z,97533.19
2018-02-10T23:58:06.857Z,97532.77
